Jackson, MN

4:24 AM CDT on June 27, 2017 (GMT -0500)
Jackson Municipal

Weather History for KMJQ - August, 2013

Change the Weather History Date:

Sunday, August 18, 2013

  Actual Average Record
Temperature  
Mean Temperature 66 °F -  
Max Temperature 78 °F 76 °F 91 °F (2003)
Min Temperature 53 °F 56 °F 44 °F (2002)
Growing Degree Days 16 (Base 50)    
Moisture  
Dew Point 53 °F    
Average Humidity 62    
Maximum Humidity 88    
Minimum Humidity 36    
Precipitation  
Precipitation 0.00 in - - ()
Sea Level Pressure  
Sea Level Pressure 30.12 in    
Wind  
Wind Speed 8 mph (South)    
Max Wind Speed 17 mph    
Max Gust Speed 24 mph    
Visibility 10 miles    
Events      
Averages and records for this station are not official NWS values.
T = Trace of Precipitation, MM = Missing Value Source: NWS Daily Summary

Daily Weather History Graph

Daily Weather History Graph

Search for Another Location

Airport or City:

Trip Planner

Search our weather history database for the weather conditions in past years. The results will help you decide how hot, cold, wet, or windy it might be!

Date:

Astronomy

Aug. 18, 2013 Rise Set
Actual Time 6:28 AM CDT 8:18 PM CDT
Civil Twilight 5:57 AM CDT 8:49 PM CDT
Nautical Twilight 5:19 AM CDT 9:26 PM CDT
Astronomical Twilight 4:39 AM CDT 10:06 PM CDT
Moon 6:26 PM CDT (8/18) 3:35 AM CDT (8/18)
Length of Visible Light 14h 51m
Length of Day
13h 50m
Waxing Gibbous, 92% of the Moon is Illuminated
Aug 18
Waxing Gibbous
Aug 20
Full
Aug 28
Last Quarter
Sep 5
New
Sep 12
First Quarter

Hourly Weather History & Observations

Time (CDT) Temp. Dew Point Humidity Pressure Visibility Wind Dir Wind Speed Gust Speed Precip Events Conditions
12:13 AM 59.0 °F 51.8 °F 77% 30.15 in 10.0 mi South 6.9 mph - N/A   Clear
12:34 AM 59.0 °F 51.8 °F 77% 30.15 in 10.0 mi South 6.9 mph - N/A   Clear
12:54 AM 59.0 °F 51.8 °F 77% 30.15 in 10.0 mi South 5.8 mph - N/A   Clear
1:13 AM 59.0 °F 51.8 °F 77% 30.15 in 10.0 mi South 5.8 mph - N/A   Clear
1:33 AM 59.0 °F 51.8 °F 77% 30.15 in 10.0 mi South 5.8 mph - N/A   Clear
1:53 AM 57.2 °F 51.8 °F 82% 30.15 in 10.0 mi South 5.8 mph - N/A   Clear
2:14 AM 57.2 °F 51.8 °F 82% 30.15 in 10.0 mi South 5.8 mph - N/A   Clear
2:33 AM 55.4 °F 51.8 °F 88% 30.15 in 10.0 mi South 4.6 mph - N/A   Clear
2:53 AM 55.4 °F 51.8 °F 88% 30.15 in 10.0 mi South 4.6 mph - N/A   Clear
3:14 AM 55.4 °F 51.8 °F 88% 30.15 in 10.0 mi South 4.6 mph - N/A   Clear
3:33 AM 55.4 °F 51.8 °F 88% 30.15 in 10.0 mi South 5.8 mph - N/A   Clear
3:53 AM 55.4 °F 50.0 °F 82% 30.15 in 10.0 mi South 4.6 mph - N/A   Clear
4:14 AM 55.4 °F 51.8 °F 88% 30.14 in 10.0 mi South 5.8 mph - N/A   Clear
4:34 AM 55.4 °F 50.0 °F 82% 30.15 in 10.0 mi South 5.8 mph - N/A   Clear
4:53 AM 55.4 °F 50.0 °F 82% 30.15 in 10.0 mi South 4.6 mph - N/A   Clear
5:14 AM 55.4 °F 50.0 °F 82% 30.15 in 10.0 mi South 4.6 mph - N/A   Clear
5:34 AM 53.6 °F 50.0 °F 88% 30.15 in 10.0 mi South 3.5 mph - N/A   Clear
5:53 AM 53.6 °F 50.0 °F 88% 30.15 in 10.0 mi South 5.8 mph - N/A   Clear
6:14 AM 55.4 °F 50.0 °F 82% 30.15 in 10.0 mi South 6.9 mph - N/A   Clear
6:34 AM 55.4 °F 50.0 °F 82% 30.16 in 10.0 mi South 6.9 mph - N/A   Clear
6:53 AM 55.4 °F 50.0 °F 82% 30.16 in 10.0 mi South 8.1 mph - N/A   Clear
7:14 AM 57.2 °F 51.8 °F 82% 30.15 in 10.0 mi South 6.9 mph - N/A   Clear
7:34 AM 59.0 °F 51.8 °F 77% 30.16 in 10.0 mi South 6.9 mph - N/A   Clear
7:53 AM 60.8 °F 51.8 °F 72% 30.15 in 10.0 mi South 6.9 mph - N/A   Clear
8:14 AM 60.8 °F 51.8 °F 72% 30.15 in 10.0 mi South 8.1 mph - N/A   Clear
8:33 AM 62.6 °F 53.6 °F 72% 30.15 in 10.0 mi South 6.9 mph - N/A   Clear
8:54 AM 64.4 °F 55.4 °F 73% 30.15 in 10.0 mi South 5.8 mph - N/A   Clear
9:14 AM 68.0 °F 55.4 °F 64% 30.15 in 10.0 mi South 6.9 mph - N/A   Clear
9:33 AM 69.8 °F 55.4 °F 60% 30.15 in 10.0 mi South 6.9 mph - N/A   Clear
9:54 AM 71.6 °F 55.4 °F 57% 30.15 in 10.0 mi South 10.4 mph - N/A   Clear
10:13 AM 71.6 °F 53.6 °F 53% 30.15 in 10.0 mi South 10.4 mph - N/A   Clear
10:33 AM 73.4 °F 53.6 °F 50% 30.15 in 10.0 mi SSW 10.4 mph - N/A   Clear
10:53 AM 73.4 °F 53.6 °F 50% 30.15 in 10.0 mi SSW 11.5 mph - N/A   Clear
11:13 AM 73.4 °F 51.8 °F 47% 30.15 in 10.0 mi SW 15.0 mph 19.6 mph N/A   Clear
11:34 AM 73.4 °F 53.6 °F 50% 30.14 in 10.0 mi SSW 10.4 mph 20.7 mph N/A   Clear
11:53 AM 77.0 °F 53.6 °F 44% 30.14 in 10.0 mi South 16.1 mph 23.0 mph N/A   Clear
12:13 PM 77.0 °F 51.8 °F 41% 30.14 in 10.0 mi SSW 13.8 mph 24.2 mph N/A   Clear
12:34 PM 77.0 °F 51.8 °F 41% 30.14 in 10.0 mi South 12.7 mph 18.4 mph N/A   Clear
12:53 PM 77.0 °F 51.8 °F 41% 30.13 in 10.0 mi SSW 13.8 mph 20.7 mph N/A   Clear
1:13 PM 77.0 °F 51.8 °F 41% 30.12 in 10.0 mi SSW 15.0 mph 20.7 mph N/A   Clear
1:34 PM 77.0 °F 50.0 °F 39% 30.11 in 10.0 mi South 17.3 mph 23.0 mph N/A   Clear
1:53 PM 78.8 °F 51.8 °F 39% 30.11 in 10.0 mi SSW 17.3 mph 23.0 mph N/A   Clear
2:13 PM 78.8 °F 51.8 °F 39% 30.10 in 10.0 mi South 16.1 mph 21.9 mph N/A   Clear
2:34 PM 78.8 °F 51.8 °F 39% 30.10 in 10.0 mi SSW 15.0 mph 19.6 mph N/A   Clear
2:53 PM 78.8 °F 51.8 °F 39% 30.10 in 10.0 mi SSW 13.8 mph 20.7 mph N/A   Clear
3:13 PM 78.8 °F 50.0 °F 36% 30.10 in 10.0 mi SSW 13.8 mph 19.6 mph N/A   Clear
3:34 PM 78.8 °F 50.0 °F 36% 30.10 in 10.0 mi SSW 13.8 mph 18.4 mph N/A   Clear
3:53 PM 77.0 °F 51.8 °F 41% 30.10 in 10.0 mi SSW 9.2 mph - N/A   Clear
4:13 PM 78.8 °F 51.8 °F 39% 30.09 in 10.0 mi South 10.4 mph 16.1 mph N/A   Clear
4:34 PM 77.0 °F 51.8 °F 41% 30.09 in 10.0 mi South 9.2 mph - N/A   Clear
4:53 PM 77.0 °F 53.6 °F 44% 30.08 in 10.0 mi South 9.2 mph 16.1 mph N/A   Clear
5:13 PM 78.8 °F 53.6 °F 42% 30.08 in 10.0 mi South 11.5 mph - N/A   Clear
5:34 PM 78.8 °F 53.6 °F 42% 30.08 in 10.0 mi South 8.1 mph - N/A   Clear
5:53 PM 78.8 °F 51.8 °F 39% 30.08 in 10.0 mi South 9.2 mph - N/A   Clear
6:13 PM 77.0 °F 51.8 °F 41% 30.08 in 10.0 mi SSW 9.2 mph - N/A   Clear
6:34 PM 77.0 °F 51.8 °F 41% 30.08 in 10.0 mi SSW 8.1 mph - N/A   Clear
6:53 PM 75.2 °F 53.6 °F 47% 30.07 in 10.0 mi SSW 6.9 mph - N/A   Clear
7:13 PM 73.4 °F 53.6 °F 50% 30.07 in 10.0 mi South 5.8 mph - N/A   Clear
7:34 PM 71.6 °F 55.4 °F 57% 30.07 in 10.0 mi South 5.8 mph - N/A   Clear
7:53 PM 71.6 °F 55.4 °F 57% 30.06 in 10.0 mi South 6.9 mph - N/A   Clear
8:13 PM 69.8 °F 55.4 °F 60% 30.06 in 10.0 mi South 5.8 mph - N/A   Clear
8:34 PM 69.8 °F 55.4 °F 60% 30.06 in 10.0 mi South 5.8 mph - N/A   Clear
8:53 PM 69.8 °F 55.4 °F 60% 30.06 in 10.0 mi South 8.1 mph - N/A   Clear
9:14 PM 68.0 °F 55.4 °F 64% 30.06 in 10.0 mi South 8.1 mph - N/A   Clear
9:34 PM 68.0 °F 55.4 °F 64% 30.06 in 10.0 mi South 8.1 mph - N/A   Clear
9:53 PM 68.0 °F 55.4 °F 64% 30.06 in 10.0 mi South 8.1 mph - N/A   Clear
10:14 PM 68.0 °F 55.4 °F 64% 30.06 in 10.0 mi SSW 8.1 mph - N/A   Clear
10:33 PM 66.2 °F 55.4 °F 68% 30.05 in 10.0 mi South 6.9 mph - N/A   Clear
10:53 PM 64.4 °F 55.4 °F 73% 30.05 in 10.0 mi South 6.9 mph - N/A   Clear
11:14 PM 64.4 °F 55.4 °F 73% 30.04 in 10.0 mi South 8.1 mph - N/A   Clear
11:33 PM 64.4 °F 55.4 °F 73% 30.05 in 10.0 mi South 8.1 mph - N/A   Clear
11:53 PM 64.4 °F 55.4 °F 73% 30.06 in 10.0 mi South 9.2 mph - N/A   Clear